sensor_id;sensor_type;location;lat;lon;timestamp;P1;P2;P0
52290;PMS5003;39663;45.432;28.050;2022-08-03T00:00:14;7.0;5.0;
52290;PMS5003;39663;45.432;28.050;2022-08-03T00:00:46;5.0;5.0;
52290;PMS5003;39663;45.432;28.050;2022-08-03T00:01:18;7.0;7.0;
52290;PMS5003;39663;45.432;28.050;2022-08-03T00:01:49;7.0;7.0;
52290;PMS5003;39663;45.432;28.050;2022-08-03T00:02:21;7.0;7.0;
52290;PMS5003;39663;45.432;28.050;2022-08-03T00:02:53;6.0;6.0;
52290;PMS5003;39663;45.432;28.050;2022-08-03T00:03:24;7.0;7.0;
52290;PMS5003;39663;45.432;28.050;2022-08-03T00:03:56;6.0;6.0;
52290;PMS5003;39663;45.432;28.050;2022-08-03T00:04:28;7.0;7.0;
52290;PMS5003;39663;45.432;28.050;2022-08-03T00:04:59;6.0;5.0;
52290;PMS5003;39663;45.432;28.050;2022-08-03T00:05:31;7.0;6.0;
52290;PMS5003;39663;45.432;28.050;2022-08-03T00:06:03;8.0;8.0;
52290;PMS5003;39663;45.432;28.050;2022-08-03T00:06:35;7.0;7.0;
52290;PMS5003;39663;45.432;28.050;2022-08-03T00:07:07;9.0;8.0;
52290;PMS5003;39663;45.432;28.050;2022-08-03T00:07:39;5.0;5.0;
52290;PMS5003;39663;45.432;28.050;2022-08-03T00:08:10;5.0;5.0;
52290;PMS5003;39663;45.432;28.050;2022-08-03T00:08:42;4.0;4.0;
52290;PMS5003;39663;45.432;28.050;2022-08-03T00:09:14;7.0;6.0;
52290;PMS5003;39663;45.432;28.050;2022-08-03T00:09:45;4.0;4.0;
52290;PMS5003;39663;45.432;28.050;2022-08-03T00:10:17;6.0;6.0;
52290;PMS5003;39663;45.432;28.050;2022-08-03T00:10:49;7.0;7.0;
52290;PMS5003;39663;45.432;28.050;2022-08-03T00:11:20;7.0;7.0;
52290;PMS5003;39663;45.432;28.050;2022-08-03T00:11:52;7.0;5.0;
52290;PMS5003;39663;45.432;28.050;2022-08-03T00:12:23;7.0;7.0;
52290;PMS5003;39663;45.432;28.050;2022-08-03T00:12:55;7.0;6.0;
52290;PMS5003;39663;45.432;28.050;2022-08-03T00:13:27;5.0;5.0;
52290;PMS5003;39663;45.432;28.050;2022-08-03T00:13:58;6.0;6.0;
52290;PMS5003;39663;45.432;28.050;2022-08-03T00:14:30;5.0;5.0;
52290;PMS5003;39663;45.432;28.050;2022-08-03T00:15:02;6.0;6.0;
52290;PMS5003;39663;45.432;28.050;2022-08-03T00:15:34;7.0;7.0;
52290;PMS5003;39663;45.432;28.050;2022-08-03T00:16:05;6.0;6.0;
52290;PMS5003;39663;45.432;28.050;2022-08-03T00:16:37;5.0;5.0;
52290;PMS5003;39663;45.432;28.050;2022-08-03T00:17:09;6.0;6.0;
52290;PMS5003;39663;45.432;28.050;2022-08-03T00:17:40;7.0;6.0;
52290;PMS5003;39663;45.432;28.050;2022-08-03T00:18:12;5.0;5.0;
52290;PMS5003;39663;45.432;28.050;2022-08-03T00:18:43;6.0;6.0;
52290;PMS5003;39663;45.432;28.050;2022-08-03T00:19:15;6.0;6.0;
52290;PMS5003;39663;45.432;28.050;2022-08-03T00:19:47;5.0;5.0;
52290;PMS5003;39663;45.432;28.050;2022-08-03T00:20:18;8.0;7.0;
52290;PMS5003;39663;45.432;28.050;2022-08-03T00:20:50;6.0;6.0;
52290;PMS5003;39663;45.432;28.050;2022-08-03T00:21:22;5.0;5.0;
52290;PMS5003;39663;45.432;28.050;2022-08-03T00:21:53;8.0;8.0;
52290;PMS5003;39663;45.432;28.050;2022-08-03T00:22:25;9.0;9.0;
52290;PMS5003;39663;45.432;28.050;2022-08-03T00:22:57;7.0;7.0;
52290;PMS5003;39663;45.432;28.050;2022-08-03T00:23:29;15.0;11.0;
52290;PMS5003;39663;45.432;28.050;2022-08-03T00:24:00;7.0;7.0;
52290;PMS5003;39663;45.432;28.050;2022-08-03T00:24:32;7.0;7.0;
52290;PMS5003;39663;45.432;28.050;2022-08-03T00:25:04;9.0;6.0;
52290;PMS5003;39663;45.432;28.050;2022-08-03T00:25:36;7.0;4.0;
52290;PMS5003;39663;45.432;28.050;2022-08-03T00:26:08;4.0;4.0;
52290;PMS5003;39663;45.432;28.050;2022-08-03T00:26:39;7.0;7.0;
52290;PMS5003;39663;45.432;28.050;2022-08-03T00:27:11;7.0;5.0;
52290;PMS5003;39663;45.432;28.050;2022-08-03T00:27:42;8.0;8.0;
52290;PMS5003;39663;45.432;28.050;2022-08-03T00:28:14;6.0;4.0;
52290;PMS5003;39663;45.432;28.050;2022-08-03T00:28:45;6.0;6.0;
52290;PMS5003;39663;45.432;28.050;2022-08-03T00:29:17;7.0;7.0;
52290;PMS5003;39663;45.432;28.050;2022-08-03T00:29:48;6.0;6.0;
52290;PMS5003;39663;45.432;28.050;2022-08-03T00:30:20;6.0;6.0;
52290;PMS5003;39663;45.432;28.050;2022-08-03T00:30:51;8.0;7.0;
52290;PMS5003;39663;45.432;28.050;2022-08-03T00:31:23;6.0;6.0;
52290;PMS5003;39663;45.432;28.050;2022-08-03T00:31:55;8.0;8.0;
52290;PMS5003;39663;45.432;28.050;2022-08-03T00:32:26;7.0;7.0;
52290;PMS5003;39663;45.432;28.050;2022-08-03T00:32:58;8.0;8.0;
52290;PMS5003;39663;45.432;28.050;2022-08-03T00:33:31;5.0;5.0;
52290;PMS5003;39663;45.432;28.050;2022-08-03T00:34:03;7.0;6.0;
52290;PMS5003;39663;45.432;28.050;2022-08-03T00:34:34;5.0;5.0;
52290;PMS5003;39663;45.432;28.050;2022-08-03T00:35:06;7.0;7.0;
52290;PMS5003;39663;45.432;28.050;2022-08-03T00:35:38;8.0;7.0;
52290;PMS5003;39663;45.432;28.050;2022-08-03T00:36:10;6.0;6.0;
52290;PMS5003;39663;45.432;28.050;2022-08-03T00:36:41;10.0;10.0;
52290;PMS5003;39663;45.432;28.050;2022-08-03T00:37:13;7.0;7.0;
52290;PMS5003;39663;45.432;28.050;2022-08-03T00:38:16;14.0;11.0;
52290;PMS5003;39663;45.432;28.050;2022-08-03T00:38:48;8.0;5.0;
52290;PMS5003;39663;45.432;28.050;2022-08-03T00:39:20;6.0;6.0;
52290;PMS5003;39663;45.432;28.050;2022-08-03T00:39:51;9.0;8.0;
52290;PMS5003;39663;45.432;28.050;2022-08-03T00:40:23;7.0;7.0;
52290;PMS5003;39663;45.432;28.050;2022-08-03T00:40:55;7.0;7.0;
52290;PMS5003;39663;45.432;28.050;2022-08-03T00:41:27;5.0;5.0;
52290;PMS5003;39663;45.432;28.050;2022-08-03T00:42:00;7.0;6.0;
52290;PMS5003;39663;45.432;28.050;2022-08-03T00:42:32;9.0;7.0;
52290;PMS5003;39663;45.432;28.050;2022-08-03T00:43:04;5.0;5.0;
52290;PMS5003;39663;45.432;28.050;2022-08-03T00:43:37;8.0;7.0;
52290;PMS5003;39663;45.432;28.050;2022-08-03T00:44:09;6.0;6.0;
52290;PMS5003;39663;45.432;28.050;2022-08-03T00:44:40;6.0;6.0;
52290;PMS5003;39663;45.432;28.050;2022-08-03T00:45:14;7.0;7.0;
52290;PMS5003;39663;45.432;28.050;2022-08-03T00:45:46;7.0;7.0;
52290;PMS5003;39663;45.432;28.050;2022-08-03T00:46:18;6.0;6.0;
52290;PMS5003;39663;45.432;28.050;2022-08-03T00:46:49;10.0;8.0;
52290;PMS5003;39663;45.432;28.050;2022-08-03T00:47:21;6.0;6.0;
52290;PMS5003;39663;45.432;28.050;2022-08-03T00:47:54;12.0;12.0;
52290;PMS5003;39663;45.432;28.050;2022-08-03T00:48:26;7.0;7.0;
52290;PMS5003;39663;45.432;28.050;2022-08-03T00:48:58;8.0;8.0;
52290;PMS5003;39663;45.432;28.050;2022-08-03T00:49:29;8.0;7.0;
52290;PMS5003;39663;45.432;28.050;2022-08-03T00:50:02;11.0;8.0;
52290;PMS5003;39663;45.432;28.050;2022-08-03T00:50:34;6.0;6.0;
52290;PMS5003;39663;45.432;28.050;2022-08-03T00:51:09;9.0;9.0;
52290;PMS5003;39663;45.432;28.050;2022-08-03T00:51:40;6.0;6.0;
52290;PMS5003;39663;45.432;28.050;2022-08-03T00:52:12;7.0;7.0;
52290;PMS5003;39663;45.432;28.050;2022-08-03T00:52:45;9.0;9.0;
52290;PMS5003;39663;45.432;28.050;2022-08-03T00:53:17;7.0;7.0;
52290;PMS5003;39663;45.432;28.050;2022-08-03T00:53:49;8.0;8.0;
52290;PMS5003;39663;45.432;28.050;2022-08-03T00:54:21;8.0;8.0;
52290;PMS5003;39663;45.432;28.050;2022-08-03T00:54:54;6.0;6.0;
52290;PMS5003;39663;45.432;28.050;2022-08-03T00:55:26;9.0;8.0;
52290;PMS5003;39663;45.432;28.050;2022-08-03T00:55:58;10.0;9.0;
52290;PMS5003;39663;45.432;28.050;2022-08-03T00:56:30;9.0;9.0;
52290;PMS5003;39663;45.432;28.050;2022-08-03T00:57:02;9.0;9.0;
52290;PMS5003;39663;45.432;28.050;2022-08-03T00:57:34;9.0;7.0;
52290;PMS5003;39663;45.432;28.050;2022-08-03T00:58:06;9.0;8.0;
52290;PMS5003;39663;45.432;28.050;2022-08-03T00:58:38;5.0;5.0;
52290;PMS5003;39663;45.432;28.050;2022-08-03T00:59:10;8.0;8.0;
52290;PMS5003;39663;45.432;28.050;2022-08-03T00:59:42;7.0;7.0;
52290;PMS5003;39663;45.432;28.050;2022-08-03T01:00:17;7.0;7.0;
52290;PMS5003;39663;45.432;28.050;2022-08-03T01:00:53;7.0;7.0;
52290;PMS5003;39663;45.432;28.050;2022-08-03T01:01:26;8.0;7.0;
52290;PMS5003;39663;45.432;28.050;2022-08-03T01:01:58;6.0;6.0;
52290;PMS5003;39663;45.432;28.050;2022-08-03T01:02:43;7.0;7.0;
52290;PMS5003;39663;45.432;28.050;2022-08-03T01:03:21;6.0;6.0;
52290;PMS5003;39663;45.432;28.050;2022-08-03T01:03:53;7.0;7.0;
52290;PMS5003;39663;45.432;28.050;2022-08-03T01:04:25;7.0;7.0;
52290;PMS5003;39663;45.432;28.050;2022-08-03T01:05:00;6.0;6.0;
52290;PMS5003;39663;45.432;28.050;2022-08-03T01:05:32;6.0;6.0;
52290;PMS5003;39663;45.432;28.050;2022-08-03T01:06:15;8.0;8.0;
52290;PMS5003;39663;45.432;28.050;2022-08-03T01:06:51;7.0;7.0;
52290;PMS5003;39663;45.432;28.050;2022-08-03T01:07:34;8.0;8.0;
52290;PMS5003;39663;45.432;28.050;2022-08-03T01:08:18;6.0;6.0;
52290;PMS5003;39663;45.432;28.050;2022-08-03T01:09:01;11.0;9.0;
52290;PMS5003;39663;45.432;28.050;2022-08-03T01:09:43;8.0;8.0;
52290;PMS5003;39663;45.432;28.050;2022-08-03T01:10:23;11.0;8.0;
52290;PMS5003;39663;45.432;28.050;2022-08-03T01:11:09;10.0;10.0;
52290;PMS5003;39663;45.432;28.050;2022-08-03T01:11:50;6.0;6.0;
52290;PMS5003;39663;45.432;28.050;2022-08-03T01:12:31;9.0;7.0;
52290;PMS5003;39663;45.432;28.050;2022-08-03T01:13:14;8.0;7.0;
52290;PMS5003;39663;45.432;28.050;2022-08-03T01:13:58;6.0;6.0;
52290;PMS5003;39663;45.432;28.050;2022-08-03T01:14:36;7.0;7.0;
52290;PMS5003;39663;45.432;28.050;2022-08-03T01:15:16;8.0;6.0;
52290;PMS5003;39663;45.432;28.050;2022-08-03T01:15:58;7.0;5.0;
52290;PMS5003;39663;45.432;28.050;2022-08-03T01:16:34;9.0;7.0;
52290;PMS5003;39663;45.432;28.050;2022-08-03T01:17:21;7.0;5.0;
52290;PMS5003;39663;45.432;28.050;2022-08-03T01:18:02;9.0;7.0;
52290;PMS5003;39663;45.432;28.050;2022-08-03T01:18:44;7.0;7.0;
52290;PMS5003;39663;45.432;28.050;2022-08-03T01:19:28;6.0;6.0;
52290;PMS5003;39663;45.432;28.050;2022-08-03T01:20:19;8.0;8.0;
52290;PMS5003;39663;45.432;28.050;2022-08-03T01:20:55;6.0;5.0;
52290;PMS5003;39663;45.432;28.050;2022-08-03T01:21:33;8.0;7.0;
52290;PMS5003;39663;45.432;28.050;2022-08-03T01:22:22;7.0;6.0;
52290;PMS5003;39663;45.432;28.050;2022-08-03T01:23:21;6.0;6.0;
52290;PMS5003;39663;45.432;28.050;2022-08-03T01:24:12;6.0;6.0;
52290;PMS5003;39663;45.432;28.050;2022-08-03T01:24:59;7.0;7.0;
52290;PMS5003;39663;45.432;28.050;2022-08-03T01:25:45;7.0;6.0;
52290;PMS5003;39663;45.432;28.050;2022-08-03T01:26:43;9.0;7.0;
52290;PMS5003;39663;45.432;28.050;2022-08-03T01:27:24;9.0;9.0;
52290;PMS5003;39663;45.432;28.050;2022-08-03T01:28:13;6.0;6.0;
52290;PMS5003;39663;45.432;28.050;2022-08-03T01:29:00;8.0;7.0;
52290;PMS5003;39663;45.432;28.050;2022-08-03T01:29:56;8.0;8.0;
52290;PMS5003;39663;45.432;28.050;2022-08-03T01:30:31;7.0;7.0;
52290;PMS5003;39663;45.432;28.050;2022-08-03T01:31:07;8.0;7.0;
52290;PMS5003;39663;45.432;28.050;2022-08-03T01:31:43;7.0;7.0;
52290;PMS5003;39663;45.432;28.050;2022-08-03T01:32:21;7.0;6.0;
52290;PMS5003;39663;45.432;28.050;2022-08-03T01:32:59;6.0;6.0;
52290;PMS5003;39663;45.432;28.050;2022-08-03T01:33:35;8.0;8.0;
52290;PMS5003;39663;45.432;28.050;2022-08-03T01:34:10;6.0;6.0;
52290;PMS5003;39663;45.432;28.050;2022-08-03T01:34:49;8.0;8.0;
52290;PMS5003;39663;45.432;28.050;2022-08-03T01:35:27;7.0;6.0;
52290;PMS5003;39663;45.432;28.050;2022-08-03T01:36:03;6.0;6.0;
52290;PMS5003;39663;45.432;28.050;2022-08-03T01:36:38;6.0;6.0;
52290;PMS5003;39663;45.432;28.050;2022-08-03T01:37:14;9.0;8.0;
52290;PMS5003;39663;45.432;28.050;2022-08-03T01:37:52;8.0;8.0;
52290;PMS5003;39663;45.432;28.050;2022-08-03T01:38:28;7.0;7.0;
52290;PMS5003;39663;45.432;28.050;2022-08-03T01:39:05;9.0;9.0;
52290;PMS5003;39663;45.432;28.050;2022-08-03T01:39:39;8.0;8.0;
52290;PMS5003;39663;45.432;28.050;2022-08-03T01:40:12;8.0;7.0;
52290;PMS5003;39663;45.432;28.050;2022-08-03T01:40:45;7.0;7.0;
52290;PMS5003;39663;45.432;28.050;2022-08-03T01:41:19;8.0;8.0;
52290;PMS5003;39663;45.432;28.050;2022-08-03T01:41:56;8.0;7.0;
52290;PMS5003;39663;45.432;28.050;2022-08-03T01:42:30;8.0;6.0;
52290;PMS5003;39663;45.432;28.050;2022-08-03T01:43:04;7.0;7.0;
52290;PMS5003;39663;45.432;28.050;2022-08-03T01:43:40;9.0;8.0;
52290;PMS5003;39663;45.432;28.050;2022-08-03T01:44:16;9.0;8.0;
52290;PMS5003;39663;45.432;28.050;2022-08-03T01:44:52;7.0;6.0;
52290;PMS5003;39663;45.432;28.050;2022-08-03T01:45:33;9.0;9.0;
52290;PMS5003;39663;45.432;28.050;2022-08-03T01:46:06;7.0;7.0;
52290;PMS5003;39663;45.432;28.050;2022-08-03T01:46:40;8.0;8.0;
52290;PMS5003;39663;45.432;28.050;2022-08-03T01:47:13;7.0;6.0;
52290;PMS5003;39663;45.432;28.050;2022-08-03T01:47:49;9.0;9.0;
52290;PMS5003;39663;45.432;28.050;2022-08-03T01:48:22;8.0;7.0;
52290;PMS5003;39663;45.432;28.050;2022-08-03T01:48:55;8.0;8.0;
52290;PMS5003;39663;45.432;28.050;2022-08-03T01:49:29;8.0;8.0;
52290;PMS5003;39663;45.432;28.050;2022-08-03T01:50:07;10.0;9.0;
52290;PMS5003;39663;45.432;28.050;2022-08-03T01:50:42;8.0;8.0;
52290;PMS5003;39663;45.432;28.050;2022-08-03T01:51:17;8.0;8.0;
52290;PMS5003;39663;45.432;28.050;2022-08-03T01:51:50;9.0;9.0;
52290;PMS5003;39663;45.432;28.050;2022-08-03T01:52:23;10.0;7.0;
52290;PMS5003;39663;45.432;28.050;2022-08-03T01:52:55;7.0;7.0;
52290;PMS5003;39663;45.432;28.050;2022-08-03T01:53:28;7.0;7.0;
52290;PMS5003;39663;45.432;28.050;2022-08-03T01:54:03;8.0;8.0;
52290;PMS5003;39663;45.432;28.050;2022-08-03T01:54:39;8.0;8.0;
52290;PMS5003;39663;45.432;28.050;2022-08-03T01:55:15;8.0;8.0;
52290;PMS5003;39663;45.432;28.050;2022-08-03T01:55:51;7.0;7.0;
52290;PMS5003;39663;45.432;28.050;2022-08-03T01:56:24;9.0;8.0;
52290;PMS5003;39663;45.432;28.050;2022-08-03T01:56:58;8.0;8.0;
52290;PMS5003;39663;45.432;28.050;2022-08-03T01:57:31;9.0;8.0;
52290;PMS5003;39663;45.432;28.050;2022-08-03T01:58:04;7.0;7.0;
52290;PMS5003;39663;45.432;28.050;2022-08-03T01:58:38;7.0;7.0;
52290;PMS5003;39663;45.432;28.050;2022-08-03T01:59:12;9.0;9.0;
52290;PMS5003;39663;45.432;28.050;2022-08-03T01:59:47;9.0;8.0;
52290;PMS5003;39663;45.432;28.050;2022-08-03T02:00:20;5.0;5.0;
52290;PMS5003;39663;45.432;28.050;2022-08-03T02:00:53;7.0;7.0;
52290;PMS5003;39663;45.432;28.050;2022-08-03T02:01:27;6.0;6.0;
52290;PMS5003;39663;45.432;28.050;2022-08-03T02:02:01;8.0;8.0;
52290;PMS5003;39663;45.432;28.050;2022-08-03T02:02:35;8.0;8.0;
52290;PMS5003;39663;45.432;28.050;2022-08-03T02:03:08;8.0;7.0;
52290;PMS5003;39663;45.432;28.050;2022-08-03T02:03:43;8.0;8.0;
52290;PMS5003;39663;45.432;28.050;2022-08-03T02:04:16;8.0;8.0;
52290;PMS5003;39663;45.432;28.050;2022-08-03T02:04:49;9.0;7.0;
52290;PMS5003;39663;45.432;28.050;2022-08-03T02:05:24;7.0;7.0;
52290;PMS5003;39663;45.432;28.050;2022-08-03T02:05:58;7.0;7.0;
52290;PMS5003;39663;45.432;28.050;2022-08-03T02:06:33;8.0;8.0;
52290;PMS5003;39663;45.432;28.050;2022-08-03T02:07:06;7.0;7.0;
52290;PMS5003;39663;45.432;28.050;2022-08-03T02:07:41;7.0;6.0;
52290;PMS5003;39663;45.432;28.050;2022-08-03T02:08:14;6.0;6.0;
52290;PMS5003;39663;45.432;28.050;2022-08-03T02:08:48;11.0;11.0;
52290;PMS5003;39663;45.432;28.050;2022-08-03T02:09:22;7.0;7.0;
52290;PMS5003;39663;45.432;28.050;2022-08-03T02:09:57;8.0;8.0;
52290;PMS5003;39663;45.432;28.050;2022-08-03T02:10:30;6.0;6.0;
52290;PMS5003;39663;45.432;28.050;2022-08-03T02:11:04;7.0;7.0;
52290;PMS5003;39663;45.432;28.050;2022-08-03T02:11:38;7.0;7.0;
52290;PMS5003;39663;45.432;28.050;2022-08-03T02:12:13;10.0;7.0;
52290;PMS5003;39663;45.432;28.050;2022-08-03T02:12:48;7.0;6.0;
52290;PMS5003;39663;45.432;28.050;2022-08-03T02:13:23;7.0;7.0;
52290;PMS5003;39663;45.432;28.050;2022-08-03T02:13:58;7.0;5.0;
52290;PMS5003;39663;45.432;28.050;2022-08-03T02:14:36;7.0;5.0;
52290;PMS5003;39663;45.432;28.050;2022-08-03T02:15:18;7.0;7.0;
52290;PMS5003;39663;45.432;28.050;2022-08-03T02:15:53;6.0;6.0;
52290;PMS5003;39663;45.432;28.050;2022-08-03T02:16:28;6.0;6.0;
52290;PMS5003;39663;45.432;28.050;2022-08-03T02:17:04;9.0;6.0;
52290;PMS5003;39663;45.432;28.050;2022-08-03T02:17:39;6.0;6.0;
52290;PMS5003;39663;45.432;28.050;2022-08-03T02:18:12;8.0;8.0;
52290;PMS5003;39663;45.432;28.050;2022-08-03T02:18:46;5.0;5.0;
52290;PMS5003;39663;45.432;28.050;2022-08-03T02:19:18;7.0;7.0;
52290;PMS5003;39663;45.432;28.050;2022-08-03T02:19:50;8.0;7.0;
52290;PMS5003;39663;45.432;28.050;2022-08-03T02:20:23;9.0;7.0;
52290;PMS5003;39663;45.432;28.050;2022-08-03T02:20:56;9.0;8.0;
52290;PMS5003;39663;45.432;28.050;2022-08-03T02:21:32;7.0;7.0;
52290;PMS5003;39663;45.432;28.050;2022-08-03T02:22:10;7.0;7.0;
52290;PMS5003;39663;45.432;28.050;2022-08-03T02:22:43;8.0;8.0;
52290;PMS5003;39663;45.432;28.050;2022-08-03T02:23:16;8.0;7.0;
52290;PMS5003;39663;45.432;28.050;2022-08-03T02:23:48;8.0;7.0;
52290;PMS5003;39663;45.432;28.050;2022-08-03T02:24:20;7.0;7.0;
52290;PMS5003;39663;45.432;28.050;2022-08-03T02:24:52;6.0;6.0;
52290;PMS5003;39663;45.432;28.050;2022-08-03T02:25:24;8.0;7.0;
52290;PMS5003;39663;45.432;28.050;2022-08-03T02:25:57;6.0;6.0;
52290;PMS5003;39663;45.432;28.050;2022-08-03T02:26:32;10.0;10.0;
52290;PMS5003;39663;45.432;28.050;2022-08-03T02:27:11;8.0;7.0;
52290;PMS5003;39663;45.432;28.050;2022-08-03T02:27:53;9.0;9.0;
52290;PMS5003;39663;45.432;28.050;2022-08-03T02:28:29;7.0;7.0;
52290;PMS5003;39663;45.432;28.050;2022-08-03T02:29:07;12.0;9.0;
52290;PMS5003;39663;45.432;28.050;2022-08-03T02:29:44;10.0;8.0;
52290;PMS5003;39663;45.432;28.050;2022-08-03T02:30:20;7.0;7.0;
52290;PMS5003;39663;45.432;28.050;2022-08-03T02:30:56;8.0;8.0;
52290;PMS5003;39663;45.432;28.050;2022-08-03T02:31:32;8.0;7.0;
52290;PMS5003;39663;45.432;28.050;2022-08-03T02:32:09;8.0;8.0;
52290;PMS5003;39663;45.432;28.050;2022-08-03T02:32:45;6.0;6.0;
52290;PMS5003;39663;45.432;28.050;2022-08-03T02:33:26;9.0;9.0;
52290;PMS5003;39663;45.432;28.050;2022-08-03T02:34:03;9.0;9.0;
52290;PMS5003;39663;45.432;28.050;2022-08-03T02:34:42;9.0;9.0;
52290;PMS5003;39663;45.432;28.050;2022-08-03T02:35:20;8.0;8.0;
52290;PMS5003;39663;45.432;28.050;2022-08-03T02:35:56;13.0;9.0;
52290;PMS5003;39663;45.432;28.050;2022-08-03T02:36:29;13.0;9.0;
52290;PMS5003;39663;45.432;28.050;2022-08-03T02:37:04;10.0;8.0;
52290;PMS5003;39663;45.432;28.050;2022-08-03T02:37:40;9.0;7.0;
52290;PMS5003;39663;45.432;28.050;2022-08-03T02:38:12;11.0;10.0;
52290;PMS5003;39663;45.432;28.050;2022-08-03T02:38:48;10.0;10.0;
52290;PMS5003;39663;45.432;28.050;2022-08-03T02:39:29;9.0;8.0;
52290;PMS5003;39663;45.432;28.050;2022-08-03T02:40:03;12.0;11.0;
52290;PMS5003;39663;45.432;28.050;2022-08-03T02:40:41;12.0;9.0;
52290;PMS5003;39663;45.432;28.050;2022-08-03T02:41:20;10.0;9.0;
52290;PMS5003;39663;45.432;28.050;2022-08-03T02:41:55;9.0;9.0;
52290;PMS5003;39663;45.432;28.050;2022-08-03T02:42:32;9.0;9.0;
52290;PMS5003;39663;45.432;28.050;2022-08-03T02:43:11;8.0;8.0;
52290;PMS5003;39663;45.432;28.050;2022-08-03T02:43:48;9.0;9.0;
52290;PMS5003;39663;45.432;28.050;2022-08-03T02:44:24;12.0;11.0;
52290;PMS5003;39663;45.432;28.050;2022-08-03T02:44:57;7.0;7.0;
52290;PMS5003;39663;45.432;28.050;2022-08-03T02:45:34;13.0;11.0;
52290;PMS5003;39663;45.432;28.050;2022-08-03T02:46:12;10.0;9.0;
52290;PMS5003;39663;45.432;28.050;2022-08-03T02:46:48;9.0;9.0;
52290;PMS5003;39663;45.432;28.050;2022-08-03T02:47:27;11.0;11.0;
52290;PMS5003;39663;45.432;28.050;2022-08-03T02:48:01;10.0;9.0;
52290;PMS5003;39663;45.432;28.050;2022-08-03T02:48:35;13.0;12.0;
52290;PMS5003;39663;45.432;28.050;2022-08-03T02:49:08;12.0;10.0;
52290;PMS5003;39663;45.432;28.050;2022-08-03T02:49:43;7.0;7.0;
52290;PMS5003;39663;45.432;28.050;2022-08-03T02:50:18;9.0;9.0;
52290;PMS5003;39663;45.432;28.050;2022-08-03T02:50:51;8.0;8.0;
52290;PMS5003;39663;45.432;28.050;2022-08-03T02:51:25;11.0;9.0;
52290;PMS5003;39663;45.432;28.050;2022-08-03T02:51:59;14.0;11.0;
52290;PMS5003;39663;45.432;28.050;2022-08-03T02:52:33;10.0;10.0;
52290;PMS5003;39663;45.432;28.050;2022-08-03T02:53:06;9.0;9.0;
52290;PMS5003;39663;45.432;28.050;2022-08-03T02:53:42;12.0;10.0;
52290;PMS5003;39663;45.432;28.050;2022-08-03T02:54:16;11.0;10.0;
52290;PMS5003;39663;45.432;28.050;2022-08-03T02:54:51;10.0;10.0;
52290;PMS5003;39663;45.432;28.050;2022-08-03T02:55:25;10.0;9.0;
52290;PMS5003;39663;45.432;28.050;2022-08-03T02:55:58;8.0;8.0;
52290;PMS5003;39663;45.432;28.050;2022-08-03T02:56:32;9.0;9.0;
52290;PMS5003;39663;45.432;28.050;2022-08-03T02:57:06;9.0;9.0;
52290;PMS5003;39663;45.432;28.050;2022-08-03T02:57:39;15.0;11.0;
52290;PMS5003;39663;45.432;28.050;2022-08-03T02:58:13;10.0;8.0;
52290;PMS5003;39663;45.432;28.050;2022-08-03T02:58:46;11.0;11.0;
52290;PMS5003;39663;45.432;28.050;2022-08-03T02:59:19;10.0;10.0;
52290;PMS5003;39663;45.432;28.050;2022-08-03T02:59:52;9.0;9.0;
52290;PMS5003;39663;45.432;28.050;2022-08-03T03:00:25;9.0;8.0;
52290;PMS5003;39663;45.432;28.050;2022-08-03T03:00:57;8.0;7.0;
52290;PMS5003;39663;45.432;28.050;2022-08-03T03:01:31;9.0;9.0;
52290;PMS5003;39663;45.432;28.050;2022-08-03T03:02:03;10.0;10.0;
52290;PMS5003;39663;45.432;28.050;2022-08-03T03:02:35;9.0;9.0;
52290;PMS5003;39663;45.432;28.050;2022-08-03T03:03:08;11.0;10.0;
52290;PMS5003;39663;45.432;28.050;2022-08-03T03:03:41;10.0;9.0;
52290;PMS5003;39663;45.432;28.050;2022-08-03T03:04:14;11.0;9.0;
52290;PMS5003;39663;45.432;28.050;2022-08-03T03:04:47;15.0;15.0;
52290;PMS5003;39663;45.432;28.050;2022-08-03T03:05:21;10.0;10.0;
52290;PMS5003;39663;45.432;28.050;2022-08-03T03:05:52;11.0;9.0;
52290;PMS5003;39663;45.432;28.050;2022-08-03T03:06:25;12.0;9.0;
52290;PMS5003;39663;45.432;28.050;2022-08-03T03:07:00;12.0;9.0;
52290;PMS5003;39663;45.432;28.050;2022-08-03T03:07:32;8.0;8.0;
52290;PMS5003;39663;45.432;28.050;2022-08-03T03:08:05;13.0;12.0;
52290;PMS5003;39663;45.432;28.050;2022-08-03T03:08:38;12.0;11.0;
52290;PMS5003;39663;45.432;28.050;2022-08-03T03:09:10;10.0;10.0;
52290;PMS5003;39663;45.432;28.050;2022-08-03T03:09:42;10.0;9.0;
52290;PMS5003;39663;45.432;28.050;2022-08-03T03:10:14;8.0;8.0;
52290;PMS5003;39663;45.432;28.050;2022-08-03T03:10:46;9.0;9.0;
52290;PMS5003;39663;45.432;28.050;2022-08-03T03:11:20;10.0;9.0;
52290;PMS5003;39663;45.432;28.050;2022-08-03T03:11:53;12.0;9.0;
52290;PMS5003;39663;45.432;28.050;2022-08-03T03:12:26;12.0;12.0;
52290;PMS5003;39663;45.432;28.050;2022-08-03T03:12:59;12.0;12.0;
52290;PMS5003;39663;45.432;28.050;2022-08-03T03:13:32;12.0;12.0;
52290;PMS5003;39663;45.432;28.050;2022-08-03T03:14:04;16.0;15.0;
52290;PMS5003;39663;45.432;28.050;2022-08-03T03:14:37;12.0;12.0;
52290;PMS5003;39663;45.432;28.050;2022-08-03T03:15:09;14.0;14.0;
52290;PMS5003;39663;45.432;28.050;2022-08-03T03:15:41;11.0;11.0;
52290;PMS5003;39663;45.432;28.050;2022-08-03T03:16:14;19.0;15.0;
52290;PMS5003;39663;45.432;28.050;2022-08-03T03:16:47;14.0;11.0;
52290;PMS5003;39663;45.432;28.050;2022-08-03T03:17:21;21.0;19.0;
52290;PMS5003;39663;45.432;28.050;2022-08-03T03:17:53;14.0;12.0;
52290;PMS5003;39663;45.432;28.050;2022-08-03T03:18:26;16.0;11.0;
52290;PMS5003;39663;45.432;28.050;2022-08-03T03:19:00;15.0;13.0;
52290;PMS5003;39663;45.432;28.050;2022-08-03T03:19:32;11.0;11.0;
52290;PMS5003;39663;45.432;28.050;2022-08-03T03:20:06;13.0;12.0;
52290;PMS5003;39663;45.432;28.050;2022-08-03T03:20:39;11.0;10.0;
52290;PMS5003;39663;45.432;28.050;2022-08-03T03:21:11;11.0;11.0;
52290;PMS5003;39663;45.432;28.050;2022-08-03T03:21:46;14.0;12.0;
52290;PMS5003;39663;45.432;28.050;2022-08-03T03:22:19;16.0;15.0;
52290;PMS5003;39663;45.432;28.050;2022-08-03T03:22:52;9.0;9.0;
52290;PMS5003;39663;45.432;28.050;2022-08-03T03:23:25;11.0;10.0;
52290;PMS5003;39663;45.432;28.050;2022-08-03T03:23:58;16.0;13.0;
52290;PMS5003;39663;45.432;28.050;2022-08-03T03:24:31;12.0;11.0;
52290;PMS5003;39663;45.432;28.050;2022-08-03T03:25:04;11.0;11.0;
52290;PMS5003;39663;45.432;28.050;2022-08-03T03:25:37;23.0;19.0;
52290;PMS5003;39663;45.432;28.050;2022-08-03T03:26:10;13.0;11.0;
52290;PMS5003;39663;45.432;28.050;2022-08-03T03:26:43;14.0;13.0;
52290;PMS5003;39663;45.432;28.050;2022-08-03T03:27:15;12.0;11.0;
52290;PMS5003;39663;45.432;28.050;2022-08-03T03:27:47;12.0;12.0;
52290;PMS5003;39663;45.432;28.050;2022-08-03T03:28:19;13.0;10.0;
52290;PMS5003;39663;45.432;28.050;2022-08-03T03:28:51;13.0;12.0;
52290;PMS5003;39663;45.432;28.050;2022-08-03T03:29:23;13.0;13.0;
52290;PMS5003;39663;45.432;28.050;2022-08-03T03:29:56;10.0;10.0;
52290;PMS5003;39663;45.432;28.050;2022-08-03T03:30:28;8.0;8.0;
52290;PMS5003;39663;45.432;28.050;2022-08-03T03:31:00;12.0;11.0;
52290;PMS5003;39663;45.432;28.050;2022-08-03T03:31:32;18.0;18.0;
52290;PMS5003;39663;45.432;28.050;2022-08-03T03:32:05;17.0;15.0;
52290;PMS5003;39663;45.432;28.050;2022-08-03T03:32:37;15.0;14.0;
52290;PMS5003;39663;45.432;28.050;2022-08-03T03:33:09;12.0;12.0;
52290;PMS5003;39663;45.432;28.050;2022-08-03T03:33:42;12.0;10.0;
52290;PMS5003;39663;45.432;28.050;2022-08-03T03:34:14;12.0;12.0;
52290;PMS5003;39663;45.432;28.050;2022-08-03T03:34:46;10.0;10.0;
52290;PMS5003;39663;45.432;28.050;2022-08-03T03:35:18;12.0;11.0;
52290;PMS5003;39663;45.432;28.050;2022-08-03T03:35:50;9.0;9.0;
52290;PMS5003;39663;45.432;28.050;2022-08-03T03:36:23;8.0;8.0;
52290;PMS5003;39663;45.432;28.050;2022-08-03T03:36:54;13.0;13.0;